Главная страница
METAR-TAF:

METAR-TAF

Аэропорты :

Бад-Фёслау, Австрия

широта: 47-57-52N, долгота: 016-15-34E, высота над уровнем моря: 233 м

Текущие метеонаблюдения

Эта сводка был подготовлена 9 часа и 58 минут назад, в 16:00 UTC
Ветер 6 Узел от западный
Температура 15°C
Влажность 67%
Давление
Видимость: 8000 м

METAR: LOAV 191600Z 27006KT 8000 FEW030CU 15/09

Время: 03:58 (01:58 UTC)

Прогноз

Эта сводка был подготовлена 14 часа и 33 минут назад, в 11:25 UTC
Прогноз действительный с 19-го 12 UTC до 19-го 21 UTC
Ветер 10 Узел от северо-западный
Видимость: 8000 м
небольшая облачность на высоте 4000 фута

TAF: LOAV 191125Z 1912/1921 32010KT 8000 FEW040

Метеонаблюдения и прогнозы для более 4000 аэропортов (сводки METAR и TAF).

Имеющиеся станции представлены на карте желтыми и красными точками.

Чтобы увидеть название станции, наведите на нее мышь.

Затем щелкните, чтобы увидеть метеонаблюдения и метеопрогнозы.

Управление картой: чтобы увеличить масштаб, щелкните зеленые кнопки с черным крестиком; чтобы уменьшить масштаб, щелкните зеленую кнопку с тире; для просмотра соседних карт щелкайте зеленые стрелки.


METAR-TAF: